Time;durP1;ratioP1;P1;durP2;ratioP2;P2;SDS_P1;SDS_P2;PMS_P1;PMS_P2;Temp;Humidity;BMP_temperature;BMP_pressure;BME280_temperature;BME280_humidity;BME280_pressure;Samples;Min_cycle;Max_cycle;Signal;HPM_P1;HPM_P2
2021/05/24 00:01:07;;;;;;;;;;;;;;;23.32;48.87;99793.28;5093945;28;19960;-51
2021/05/24 00:03:32;;;;;;;;;;;;;;;23.25;49.13;99803.66;5093862;28;19912;-53
2021/05/24 00:05:57;;;;;;;;;;;;;;;23.16;49.70;99817.06;5093893;28;20303;-51
2021/05/24 00:08:23;;;;;;;;;;;;;;;23.13;49.58;99831.19;5093521;28;20307;-50
2021/05/24 00:10:48;;;;;;;;;;;;;;;23.04;49.61;99836.44;5092662;28;19919;-53
2021/05/24 00:13:14;;;;;;;;;;;;;;;22.85;50.14;99836.28;5093665;28;19956;-53
2021/05/24 00:15:40;;;;;;;;;;;;;;;22.56;50.60;99838.91;5093713;28;19916;-51
2021/05/24 00:18:06;;;;;;;;;;;;;;;22.70;49.87;99822.84;5093324;28;20347;-51
2021/05/24 00:20:32;;;;;;;;;;;;;;;22.62;50.40;99821.53;5093331;28;19959;-52
2021/05/24 00:22:58;;;;;;;;;;;;;;;22.67;50.08;99818.75;5100569;28;20012;-52
2021/05/24 00:25:23;;;;;;;;;;;;;;;22.59;50.08;99819.38;5113608;28;19923;-51
2021/05/24 00:27:48;;;;;;;;;;;;;;;22.76;49.75;99821.69;5113582;28;20020;-50
2021/05/24 00:30:14;;;;;;;;;;;;;;;22.75;49.44;99831.75;5113546;28;19912;-51
2021/05/24 00:32:39;;;;;;;;;;;;;;;22.93;48.95;99829.44;5113314;28;19920;-51
2021/05/24 00:35:05;;;;;;;;;;;;;;;22.87;49.39;99836.00;5113456;28;19922;-52
2021/05/24 00:37:31;;;;;;;;;;;;;;;22.91;49.17;99835.16;5113354;28;20360;-51
2021/05/24 00:39:56;;;;;;;;;;;;;;;22.93;49.20;99832.16;5113237;28;19935;-52
2021/05/24 00:42:21;;;;;;;;;;;;;;;22.98;48.75;99822.06;5113390;28;19916;-53
2021/05/24 00:44:47;;;;;;;;;;;;;;;23.03;48.85;99824.75;5113483;28;20372;-51
2021/05/24 00:47:12;;;;;;;;;;;;;;;23.04;48.51;99825.59;5113335;28;19919;-51
2021/05/24 00:49:37;;;;;;;;;;;;;;;22.92;49.13;99814.25;5113256;28;19911;-53
2021/05/24 00:52:03;;;;;;;;;;;;;;;22.91;49.18;99818.88;5113133;28;20390;-52
2021/05/24 00:54:28;;;;;;;;;;;;;;;22.88;48.86;99824.03;5113003;28;19920;-51
2021/05/24 00:56:54;;;;;;;;;;;;;;;22.69;49.38;99819.28;5111668;28;19911;-50
2021/05/24 00:59:19;;;;;;;;;;;;;;;22.65;49.50;99821.75;5112970;28;19935;-50
2021/05/24 01:01:44;;;;;;;;;;;;;;;22.77;49.15;99813.28;5112814;28;20372;-49
2021/05/24 01:04:10;;;;;;;;;;;;;;;22.80;48.75;99806.47;5112567;28;19912;-49
2021/05/24 01:06:35;;;;;;;;;;;;;;;22.74;49.00;99794.06;5112595;28;20060;-47
2021/05/24 01:09:00;;;;;;;;;;;;;;;22.49;49.48;99798.56;5111355;28;19915;-49
2021/05/24 01:11:26;;;;;;;;;;;;;;;22.43;49.63;99803.19;5112574;28;19939;-48
2021/05/24 01:13:51;;;;;;;;;;;;;;;22.56;49.40;99792.81;5112154;28;19946;-48
2021/05/24 01:16:16;;;;;;;;;;;;;;;22.30;49.78;99797.59;5112279;28;19938;-48
2021/05/24 01:18:42;;;;;;;;;;;;;;;22.24;50.00;99789.47;5112669;28;19915;-51
2021/05/24 01:21:11;;;;;;;;;;;;;;;22.30;49.48;99790.28;5111383;28;19990;-51
2021/05/24 01:23:40;;;;;;;;;;;;;;;22.14;50.13;99789.53;5112507;27;20356;-51
2021/05/24 01:26:06;;;;;;;;;;;;;;;22.20;49.59;99782.97;5112321;28;19918;-50
2021/05/24 01:28:31;;;;;;;;;;;;;;;22.36;49.51;99791.06;5112152;28;20173;-47
2021/05/24 01:30:56;;;;;;;;;;;;;;;22.25;49.55;99787.59;5112191;28;19954;-50
2021/05/24 01:33:22;;;;;;;;;;;;;;;22.36;49.28;99791.84;5112215;28;20060;-48
2021/05/24 01:35:48;;;;;;;;;;;;;;;22.32;49.43;99790.81;5112225;28;20318;-49
2021/05/24 01:38:13;;;;;;;;;;;;;;;22.45;49.02;99792.09;5111929;28;19948;-49
2021/05/24 01:40:39;;;;;;;;;;;;;;;22.50;49.03;99802.88;5112043;28;19919;-50
2021/05/24 01:43:05;;;;;;;;;;;;;;;22.54;49.40;99803.13;5111979;28;19911;-52
2021/05/24 01:45:30;;;;;;;;;;;;;;;22.50;49.03;99807.50;5111965;28;19923;-50
2021/05/24 01:47:56;;;;;;;;;;;;;;;22.36;49.51;99816.25;5111946;28;19916;-52
2021/05/24 01:50:21;;;;;;;;;;;;;;;22.10;49.89;99815.53;5111827;28;20018;-52
2021/05/24 01:52:46;;;;;;;;;;;;;;;22.27;49.42;99812.50;5111783;28;19919;-52
2021/05/24 01:55:12;;;;;;;;;;;;;;;22.23;49.42;99816.84;5111678;28;19973;-53
2021/05/24 01:57:37;;;;;;;;;;;;;;;22.21;49.94;99810.88;5111627;28;19977;-51
2021/05/24 02:00:04;;;;;;;;;;;;;;;22.14;50.07;99808.50;5111753;27;20330;-50
2021/05/24 02:02:30;;;;;;;;;;;;;;;22.17;49.97;99813.34;5111902;28;20373;-50
2021/05/24 02:04:55;;;;;;;;;;;;;;;22.24;49.84;99815.75;5111695;28;20360;-50
2021/05/24 02:07:20;;;;;;;;;;;;;;;22.30;49.97;99822.00;5111614;28;19962;-51
2021/05/24 02:09:45;;;;;;;;;;;;;;;22.24;50.14;99813.06;5111634;28;19912;-51
2021/05/24 02:12:11;;;;;;;;;;;;;;;22.04;50.33;99809.31;5111345;28;20301;-52
2021/05/24 02:14:36;;;;;;;;;;;;;;;22.24;49.94;99811.13;5111472;28;19931;-52
2021/05/24 02:17:02;;;;;;;;;;;;;;;22.19;49.63;99819.28;5109962;28;20359;-53
2021/05/24 02:19:27;;;;;;;;;;;;;;;22.14;49.69;99821.22;5111523;28;20021;-52
2021/05/24 02:21:52;;;;;;;;;;;;;;;22.19;49.59;99830.13;5111400;28;19968;-52
2021/05/24 02:24:18;;;;;;;;;;;;;;;22.31;49.68;99837.16;5111112;28;20307;-52
2021/05/24 02:26:43;;;;;;;;;;;;;;;22.34;49.61;99840.13;5111471;28;20340;-50
2021/05/24 02:29:08;;;;;;;;;;;;;;;22.21;49.62;99846.13;5111345;28;19912;-49
2021/05/24 02:31:34;;;;;;;;;;;;;;;22.21;49.73;99855.06;5111173;28;20052;-52
2021/05/24 02:33:59;;;;;;;;;;;;;;;22.32;49.32;99853.16;5110695;28;20307;-50
2021/05/24 02:36:26;;;;;;;;;;;;;;;22.34;49.40;99844.75;5111279;28;20006;-53
2021/05/24 02:38:51;;;;;;;;;;;;;;;22.27;49.85;99850.44;5109687;28;19927;-52
2021/05/24 02:41:17;;;;;;;;;;;;;;;22.23;49.84;99852.06;5111166;28;19911;-51
2021/05/24 02:43:42;;;;;;;;;;;;;;;21.65;50.93;99861.47;5111030;28;19912;-51
2021/05/24 02:46:07;;;;;;;;;;;;;;;21.29;51.75;99857.97;5111186;28;19912;-53
2021/05/24 02:48:32;;;;;;;;;;;;;;;21.19;51.89;99858.78;5111104;28;20002;-52
2021/05/24 02:50:58;;;;;;;;;;;;;;;20.89;52.88;99865.00;5110915;28;19912;-52
2021/05/24 02:53:23;;;;;;;;;;;;;;;20.41;53.95;99854.34;5110861;28;19982;-51
2021/05/24 02:55:48;;;;;;;;;;;;;;;20.46;54.27;99864.34;5110966;28;20349;-49
2021/05/24 02:58:14;;;;;;;;;;;;;;;19.85;55.34;99862.19;5110824;28;19969;-50
2021/05/24 03:00:39;;;;;;;;;;;;;;;19.75;56.01;99864.84;5109899;28;19912;-50
2021/05/24 03:03:04;;;;;;;;;;;;;;;19.78;55.68;99862.44;5111099;28;20402;-51
2021/05/24 03:05:30;;;;;;;;;;;;;;;19.62;55.97;99858.78;5110958;28;19919;-53
2021/05/24 03:07:55;;;;;;;;;;;;;;;19.61;55.90;99856.34;5111004;28;19935;-52
2021/05/24 03:10:24;;;;;;;;;;;;;;;19.75;55.13;99860.25;5109791;28;19918;-50
2021/05/24 03:12:49;;;;;;;;;;;;;;;19.70;55.34;99855.63;5111217;28;19911;-51
2021/05/24 03:15:14;;;;;;;;;;;;;;;19.85;54.77;99852.19;5110729;28;19924;-50
2021/05/24 03:17:40;;;;;;;;;;;;;;;19.65;55.38;99852.06;5110986;28;19998;-52
2021/05/24 03:20:06;;;;;;;;;;;;;;;19.40;56.15;99840.03;5110641;28;20021;-49
2021/05/24 03:22:31;;;;;;;;;;;;;;;19.70;55.29;99849.38;5110695;28;19961;-52
2021/05/24 03:24:56;;;;;;;;;;;;;;;19.89;54.97;99863.28;5110522;28;19912;-48
2021/05/24 03:27:22;;;;;;;;;;;;;;;20.21;54.25;99860.47;5109551;28;19912;-49
2021/05/24 03:29:48;;;;;;;;;;;;;;;20.11;54.23;99855.03;5110839;28;19925;-49
2021/05/24 03:32:13;;;;;;;;;;;;;;;20.49;53.00;99863.81;5110643;28;19999;-52
2021/05/24 03:34:38;;;;;;;;;;;;;;;20.74;52.05;99862.28;5110767;28;19962;-51
2021/05/24 03:37:04;;;;;;;;;;;;;;;20.86;51.76;99879.06;5110425;28;19968;-52
2021/05/24 03:39:29;;;;;;;;;;;;;;;21.46;50.55;99882.88;5110604;28;20041;-53
2021/05/24 03:41:54;;;;;;;;;;;;;;;21.78;49.47;99883.63;5110820;28;19973;-50
2021/05/24 03:44:19;;;;;;;;;;;;;;;22.13;48.54;99890.06;5111305;28;19912;-51
2021/05/24 03:46:45;;;;;;;;;;;;;;;22.35;47.43;99892.44;5111516;28;20298;-50
2021/05/24 03:49:10;;;;;;;;;;;;;;;22.19;47.73;99887.03;5093881;28;19974;-51
2021/05/24 03:51:35;;;;;;;;;;;;;;;22.62;46.74;99898.28;5093935;28;20516;-51
2021/05/24 03:54:01;;;;;;;;;;;;;;;22.91;45.68;99896.75;5093873;28;19912;-50
2021/05/24 03:56:26;;;;;;;;;;;;;;;23.09;45.67;99901.50;5093845;28;19916;-50
2021/05/24 03:58:51;;;;;;;;;;;;;;;23.55;44.74;99909.28;5093386;28;19932;-48
2021/05/24 04:01:16;;;;;;;;;;;;;;;23.82;44.18;99913.41;5093601;28;19954;-49
2021/05/24 04:03:42;;;;;;;;;;;;;;;24.36;42.75;99911.44;5093568;28;20019;-49
2021/05/24 04:06:09;;;;;;;;;;;;;;;24.75;42.37;99908.50;5093525;28;19912;-49
2021/05/24 04:08:43;;;;;;;;;;;;;;;24.88;41.52;99922.47;5093476;28;20332;-51
2021/05/24 04:11:09;;;;;;;;;;;;;;;24.68;42.00;99923.56;5093314;28;19920;-51
2021/05/24 04:13:35;;;;;;;;;;;;;;;25.06;40.91;99931.75;5093437;28;19947;-51
2021/05/24 04:16:00;;;;;;;;;;;;;;;25.21;40.63;99944.28;5093420;28;19912;-52
2021/05/24 04:18:28;;;;;;;;;;;;;;;25.37;40.07;99948.44;5093510;28;20295;-52
2021/05/24 04:20:53;;;;;;;;;;;;;;;25.56;39.87;99951.13;5093414;28;19912;-50
2021/05/24 04:23:19;;;;;;;;;;;;;;;24.78;41.08;99958.78;5103566;28;19927;-52
2021/05/24 04:25:44;;;;;;;;;;;;;;;24.73;41.13;99962.41;5113395;28;19912;-50
2021/05/24 04:28:09;;;;;;;;;;;;;;;24.98;40.75;99958.53;5113677;28;19990;-52
2021/05/24 04:30:35;;;;;;;;;;;;;;;24.92;40.89;99959.69;5113678;28;20374;-52
2021/05/24 04:33:00;;;;;;;;;;;;;;;25.07;40.33;99960.56;5113296;28;19916;-51
2021/05/24 04:35:25;;;;;;;;;;;;;;;25.39;40.08;99967.19;5113357;28;19938;-50
2021/05/24 04:37:51;;;;;;;;;;;;;;;25.59;40.09;99960.59;5112870;28;19983;-52
2021/05/24 04:40:16;;;;;;;;;;;;;;;25.68;40.03;99970.53;5113080;28;19919;-50
2021/05/24 04:42:41;;;;;;;;;;;;;;;26.10;38.87;99976.91;5113202;28;19915;-51
2021/05/24 04:45:07;;;;;;;;;;;;;;;25.78;39.62;99980.44;5113283;28;20007;-52
2021/05/24 04:47:32;;;;;;;;;;;;;;;25.62;39.78;99982.59;5113030;28;19965;-51
2021/05/24 04:49:57;;;;;;;;;;;;;;;26.31;38.56;99987.41;5113097;28;20009;-51
2021/05/24 04:52:22;;;;;;;;;;;;;;;26.28;38.97;99988.81;5112656;28;19912;-51
2021/05/24 04:54:48;;;;;;;;;;;;;;;26.75;37.88;99988.75;5112768;28;19912;-51
2021/05/24 04:57:13;;;;;;;;;;;;;;;26.13;38.23;99989.91;5112849;28;20415;-52
2021/05/24 04:59:38;;;;;;;;;;;;;;;26.70;37.92;99992.38;5113018;28;19930;-48
2021/05/24 05:02:04;;;;;;;;;;;;;;;26.99;36.81;99993.13;5112732;28;19947;-49
2021/05/24 05:04:29;;;;;;;;;;;;;;;26.50;38.29;99996.31;5112674;28;19912;-49
2021/05/24 05:06:56;;;;;;;;;;;;;;;27.10;36.73;100000.78;5112468;28;19912;-49
2021/05/24 05:09:22;;;;;;;;;;;;;;;26.89;37.22;99992.22;5112805;28;19919;-51
2021/05/24 05:11:47;;;;;;;;;;;;;;;27.02;36.94;100000.72;5112791;28;19916;-52
2021/05/24 05:14:12;;;;;;;;;;;;;;;27.34;36.54;100010.66;5112131;28;20422;-48
2021/05/24 05:16:37;;;;;;;;;;;;;;;27.34;36.65;100012.56;5112536;28;19995;-49
2021/05/24 05:19:03;;;;;;;;;;;;;;;27.68;35.23;100006.53;5112290;28;20370;-49
2021/05/24 05:21:28;;;;;;;;;;;;;;;27.94;34.38;100011.41;5112126;28;19912;-49
2021/05/24 05:23:54;;;;;;;;;;;;;;;28.52;33.80;100021.38;5112127;28;20037;-48
2021/05/24 05:26:19;;;;;;;;;;;;;;;27.61;34.83;100034.34;5112087;28;20010;-48
2021/05/24 05:28:44;;;;;;;;;;;;;;;28.06;34.48;100026.13;5112330;28;19912;-49
2021/05/24 05:31:10;;;;;;;;;;;;;;;27.48;35.21;100037.94;5112124;28;19912;-49
2021/05/24 05:33:36;;;;;;;;;;;;;;;27.84;34.74;100023.41;5111805;28;19943;-50
2021/05/24 05:36:01;;;;;;;;;;;;;;;28.02;34.98;100029.78;5111881;28;19912;-51
2021/05/24 05:38:28;;;;;;;;;;;;;;;28.11;34.25;100029.84;5111911;28;19927;-49
2021/05/24 05:40:53;;;;;;;;;;;;;;;27.49;35.37;100040.34;5112054;28;20019;-51
2021/05/24 05:43:18;;;;;;;;;;;;;;;27.47;35.67;100048.06;5111768;28;20000;-49
2021/05/24 05:45:44;;;;;;;;;;;;;;;27.99;34.82;100033.97;5111779;28;19912;-52
2021/05/24 05:48:09;;;;;;;;;;;;;;;28.72;33.97;100043.78;5111700;28;20365;-51
2021/05/24 05:50:35;;;;;;;;;;;;;;;28.59;33.97;100040.84;5111702;28;20280;-49
2021/05/24 05:53:00;;;;;;;;;;;;;;;28.71;33.91;100042.16;5112215;28;19916;-51
2021/05/24 05:55:25;;;;;;;;;;;;;;;28.42;33.83;100047.03;5111563;28;20371;-52
2021/05/24 05:57:50;;;;;;;;;;;;;;;28.34;34.37;100052.47;5111699;28;19915;-50
2021/05/24 06:00:16;;;;;;;;;;;;;;;28.41;34.06;100052.84;5101311;28;19920;-52
2021/05/24 06:02:41;;;;;;;;;;;;;;;30.14;31.67;100065.13;5091354;28;19949;-38
2021/05/24 06:05:07;;;;;;;;;;;;;;;30.20;31.66;100061.09;5091240;28;19908;-38
2021/05/24 06:07:32;;;;;;;;;;;;;;;31.05;30.69;100067.66;5090953;28;19973;-39
2021/05/24 06:09:57;;;;;;;;;;;;;;;31.04;30.56;100068.81;5091773;28;19919;-36
2021/05/24 06:12:23;;;;;;;;;;;;;;;32.10;29.16;100078.63;5091073;28;19916;-37
2021/05/24 06:14:48;;;;;;;;;;;;;;;31.54;29.67;100080.91;5091584;28;20356;-37
2021/05/24 06:17:13;;;;;;;;;;;;;;;31.34;29.89;100075.06;5091200;28;20058;-37
2021/05/24 06:19:38;;;;;;;;;;;;;;;30.80;30.94;100078.44;5091515;28;19923;-38
2021/05/24 06:22:04;;;;;;;;;;;;;;;31.24;30.13;100066.41;5091405;28;20313;-40
2021/05/24 06:24:29;;;;;;;;;;;;;;;31.67;29.99;100077.09;5111589;28;20041;-37
2021/05/24 06:26:54;;;;;;;;;;;;;;;31.44;30.40;100071.09;5111975;28;20275;-38
2021/05/24 06:29:24;;;;;;;;;;;;;;;31.88;29.34;100059.75;5111774;28;19913;-38
2021/05/24 06:31:51;;;;;;;;;;;;;;;32.21;28.78;100067.97;5111664;28;19916;-38
2021/05/24 06:34:16;;;;;;;;;;;;;;;31.71;29.96;100067.00;5111324;28;19919;-38
2021/05/24 06:36:41;;;;;;;;;;;;;;;31.10;30.13;100072.97;5111312;28;19915;-38
2021/05/24 06:39:07;;;;;;;;;;;;;;;30.85;30.61;100062.94;5111425;28;19923;-37
2021/05/24 06:41:32;;;;;;;;;;;;;;;30.62;30.62;100071.44;5111388;28;20002;-37
2021/05/24 06:43:59;;;;;;;;;;;;;;;31.16;30.18;100077.13;5110697;28;19922;-39
2021/05/24 06:46:24;;;;;;;;;;;;;;;30.91;30.44;100081.66;5110636;28;19994;-38
2021/05/24 06:48:49;;;;;;;;;;;;;;;31.10;30.62;100086.72;5110312;28;20018;-50
2021/05/24 06:51:14;;;;;;;;;;;;;;;31.74;29.56;100084.81;5109935;28;20407;-49
2021/05/24 06:53:40;;;;;;;;;;;;;;;32.09;29.20;100084.47;5110205;28;19915;-47
2021/05/24 06:56:05;;;;;;;;;;;;;;;32.53;28.51;100079.25;5110253;28;20315;-38
2021/05/24 06:58:30;;;;;;;;;;;;;;;32.88;27.69;100087.09;5110584;28;19919;-39
2021/05/24 07:00:56;;;;;;;;;;;;;;;32.70;28.13;100092.03;5110525;28;20355;-39
2021/05/24 07:03:21;;;;;;;;;;;;;;;31.73;28.86;100105.19;5092681;28;19924;-52
2021/05/24 07:05:46;;;;;;;;;;;;;;;31.19;30.10;100108.66;5088379;28;19923;-51
2021/05/24 07:08:11;;;;;;;;;;;;;;;31.15;29.98;100114.00;5089307;28;20006;-50
2021/05/24 07:10:37;;;;;;;;;;;;;;;32.05;29.68;100111.06;5089293;28;20011;-51
2021/05/24 07:13:02;;;;;;;;;;;;;;;32.47;28.84;100108.97;5089532;28;20011;-50
2021/05/24 07:15:27;;;;;;;;;;;;;;;32.92;28.19;100116.38;5090041;28;19965;-49
2021/05/24 07:17:53;;;;;;;;;;;;;;;32.10;28.35;100110.84;5090079;28;19916;-49
2021/05/24 07:20:18;;;;;;;;;;;;;;;32.57;27.97;100115.22;5091994;28;19962;-48
2021/05/24 07:22:43;;;;;;;;;;;;;;;31.84;28.96;100128.38;5098719;28;19935;-50
2021/05/24 07:25:09;;;;;;;;;;;;;;;32.76;27.77;100136.69;5113385;28;19912;-51
2021/05/24 07:27:34;;;;;;;;;;;;;;;32.80;27.76;100123.84;5113371;28;19976;-50
2021/05/24 07:29:59;;;;;;;;;;;;;;;33.07;27.79;100111.28;5113306;28;20303;-51
2021/05/24 07:32:24;;;;;;;;;;;;;;;32.87;27.89;100127.63;5113236;28;19964;-51
2021/05/24 07:34:50;;;;;;;;;;;;;;;32.84;27.56;100125.56;5113437;28;19918;-50
2021/05/24 07:37:15;;;;;;;;;;;;;;;32.58;27.92;100136.09;5099798;28;20336;-38
2021/05/24 07:39:40;;;;;;;;;;;;;;;33.06;27.64;100134.50;5093527;28;19967;-39
2021/05/24 07:42:06;;;;;;;;;;;;;;;32.92;27.71;100137.63;5093448;28;19912;-39
2021/05/24 07:44:33;;;;;;;;;;;;;;;33.43;26.90;100137.22;5093341;28;19919;-39
2021/05/24 07:46:58;;;;;;;;;;;;;;;33.50;27.10;100135.47;5093049;28;19916;-39
2021/05/24 07:49:23;;;;;;;;;;;;;;;33.35;27.01;100141.72;5092432;28;19942;-39
2021/05/24 07:51:49;;;;;;;;;;;;;;;32.44;27.67;100145.44;5093402;28;19916;-39
2021/05/24 07:54:14;;;;;;;;;;;;;;;33.27;26.66;100140.69;5092828;28;19912;-39
2021/05/24 07:56:40;;;;;;;;;;;;;;;34.20;26.25;100139.88;5092814;28;19912;-39
2021/05/24 07:59:05;;;;;;;;;;;;;;;34.59;25.92;100142.81;5092779;28;19935;-38
2021/05/24 08:01:30;;;;;;;;;;;;;;;34.54;25.60;100139.53;5092438;28;20319;-39
2021/05/24 08:03:55;;;;;;;;;;;;;;;34.88;25.05;100140.81;5092599;28;19912;-39
2021/05/24 08:06:21;;;;;;;;;;;;;;;35.13;24.95;100135.88;5092370;28;19912;-40
2021/05/24 08:08:46;;;;;;;;;;;;;;;36.23;23.61;100135.00;5092680;28;20006;-39
2021/05/24 08:11:13;;;;;;;;;;;;;;;36.53;23.41;100140.66;5092434;28;20353;-38
2021/05/24 08:13:38;;;;;;;;;;;;;;;35.66;23.73;100131.84;5091654;28;19925;-38
2021/05/24 08:16:03;;;;;;;;;;;;;;;35.57;24.39;100132.09;5092397;28;19920;-38
2021/05/24 08:18:28;;;;;;;;;;;;;;;35.58;24.00;100123.41;5092071;28;20375;-38
2021/05/24 08:20:54;;;;;;;;;;;;;;;35.98;23.93;100129.75;5092348;28;19912;-38
2021/05/24 08:23:19;;;;;;;;;;;;;;;35.72;24.38;100124.88;5102856;28;19919;-39
2021/05/24 08:25:44;;;;;;;;;;;;;;;36.85;23.25;100127.34;5112266;28;20002;-38
2021/05/24 08:28:10;;;;;;;;;;;;;;;36.06;23.17;100127.91;5112229;28;20010;-38
2021/05/24 08:30:35;;;;;;;;;;;;;;;35.95;23.22;100124.97;5111390;28;19977;-39
2021/05/24 08:33:00;;;;;;;;;;;;;;;35.75;23.24;100119.44;5107489;28;19915;-39
2021/05/24 08:35:26;;;;;;;;;;;;;;;36.25;23.12;100116.03;5093910;28;19912;-40
2021/05/24 08:37:51;;;;;;;;;;;;;;;35.00;23.92;100115.03;5090050;28;20387;-39
2021/05/24 08:40:18;;;;;;;;;;;;;;;35.35;23.48;100115.03;5091699;28;20018;-38
2021/05/24 08:42:44;;;;;;;;;;;;;;;35.20;23.92;100107.59;5103389;28;19994;-39
2021/05/24 08:45:10;;;;;;;;;;;;;;;35.55;24.04;100112.28;5107322;28;20379;-40
2021/05/24 08:47:35;;;;;;;;;;;;;;;36.13;22.92;100119.75;5100072;28;19912;-39
2021/05/24 08:50:01;;;;;;;;;;;;;;;36.43;22.47;100132.97;5099858;28;20366;-39
2021/05/24 08:52:27;;;;;;;;;;;;;;;34.99;23.69;100119.72;5106765;28;19963;-39
2021/05/24 08:54:52;;;;;;;;;;;;;;;35.81;23.78;100119.94;5092793;28;20015;-38
2021/05/24 08:57:18;;;;;;;;;;;;;;;36.51;22.95;100116.09;5091092;28;20405;-39
2021/05/24 08:59:43;;;;;;;;;;;;;;;36.65;22.20;100114.72;5100538;28;19924;-38
2021/05/24 09:02:09;;;;;;;;;;;;;;;35.92;22.57;100114.63;5098439;28;19912;-37
2021/05/24 09:04:44;;;;;;;;;;;;;;;35.98;23.17;100116.69;5108058;28;19916;-38
2021/05/24 09:07:10;;;;;;;;;;;;;;;36.12;23.01;100110.66;5111711;28;20296;-38
2021/05/24 09:09:36;;;;;;;;;;;;;;;36.48;22.30;100102.16;5106315;28;19923;-39
2021/05/24 09:12:03;;;;;;;;;;;;;;;36.05;22.69;100101.41;5090980;28;19916;-39
2021/05/24 09:14:29;;;;;;;;;;;;;;;35.47;23.26;100100.28;5085507;28;20252;-39
2021/05/24 09:16:55;;;;;;;;;;;;;;;34.92;23.47;100094.69;5090215;28;20402;-39
2021/05/24 09:19:20;;;;;;;;;;;;;;;35.70;22.88;100096.78;5091212;28;19920;-39
2021/05/24 09:21:49;;;;;;;;;;;;;;;35.82;22.61;100089.13;5090591;28;19912;-39
2021/05/24 09:24:21;;;;;;;;;;;;;;;36.57;22.09;100102.72;5090585;28;19912;-39
2021/05/24 09:26:46;;;;;;;;;;;;;;;35.68;23.76;100099.13;5091295;28;19943;-39
2021/05/24 09:29:12;;;;;;;;;;;;;;;35.64;22.14;100096.25;5091024;28;19963;-39
2021/05/24 09:31:38;;;;;;;;;;;;;;;35.78;22.45;100093.81;5090981;28;19954;-38
2021/05/24 09:34:06;;;;;;;;;;;;;;;36.12;22.63;100090.44;5091063;28;20346;-38
2021/05/24 09:36:31;;;;;;;;;;;;;;;36.27;21.92;100094.31;5090641;28;19912;-38
2021/05/24 09:39:00;;;;;;;;;;;;;;;35.88;21.96;100080.53;5090781;28;19917;-38
2021/05/24 09:41:26;;;;;;;;;;;;;;;35.58;22.12;100075.56;5090638;28;19959;-39
2021/05/24 09:43:52;;;;;;;;;;;;;;;35.13;22.58;100077.78;5090297;28;20003;-39
2021/05/24 09:46:19;;;;;;;;;;;;;;;36.04;22.19;100077.66;5090562;28;20124;-38
2021/05/24 09:48:45;;;;;;;;;;;;;;;36.89;21.52;100074.72;5090728;28;20323;-38
2021/05/24 09:51:14;;;;;;;;;;;;;;;36.25;21.49;100066.97;5090882;28;19951;-39
2021/05/24 09:53:40;;;;;;;;;;;;;;;36.79;20.88;100068.66;5090934;28;19916;-39
2021/05/24 09:56:06;;;;;;;;;;;;;;;36.20;20.77;100053.44;5096512;28;20020;-38
2021/05/24 09:58:31;;;;;;;;;;;;;;;35.79;22.08;100062.16;5098309;28;20013;-38
2021/05/24 10:01:18;;;;;;;;;;;;;;;36.37;21.28;100057.69;5098892;28;19924;-38
2021/05/24 10:03:42;;;;;;;;;;;;;;;36.06;21.69;100064.22;5095565;28;19912;-38
2021/05/24 10:06:07;;;;;;;;;;;;;;;36.75;21.15;100055.94;5100781;28;19912;-39
2021/05/24 10:08:33;;;;;;;;;;;;;;;36.49;21.19;100043.63;5090459;28;20380;-39
2021/05/24 10:10:59;;;;;;;;;;;;;;;37.01;20.25;100038.44;5089939;28;20367;-39
2021/05/24 10:13:24;;;;;;;;;;;;;;;37.83;20.77;100040.63;5090325;28;20007;-39
2021/05/24 10:15:54;;;;;;;;;;;;;;;37.33;20.92;100043.63;5090942;28;20011;-39
2021/05/24 10:18:19;;;;;;;;;;;;;;;37.74;19.93;100036.19;5090444;28;19912;-47
2021/05/24 10:20:45;;;;;;;;;;;;;;;38.07;19.74;100037.31;5089876;28;19938;-39
2021/05/24 10:23:10;;;;;;;;;;;;;;;37.85;20.11;100024.38;5099175;28;20331;-39
2021/05/24 10:25:35;;;;;;;;;;;;;;;38.08;19.87;100036.16;5109731;28;20386;-39
2021/05/24 10:28:01;;;;;;;;;;;;;;;37.98;19.73;100033.25;5110103;28;19977;-38
2021/05/24 10:30:26;;;;;;;;;;;;;;;39.11;18.57;100023.38;5109188;28;19978;-39
2021/05/24 10:32:52;;;;;;;;;;;;;;;39.10;18.98;100022.56;5110171;28;19912;-40
2021/05/24 10:35:30;;;;;;;;;;;;;;;38.82;19.25;100014.06;5110347;28;19911;-39
2021/05/24 10:37:55;;;;;;;;;;;;;;;37.66;19.99;100006.78;5109843;28;19922;-38
2021/05/24 10:40:20;;;;;;;;;;;;;;;38.10;19.81;100013.56;5090977;28;19924;-38
2021/05/24 10:42:46;;;;;;;;;;;;;;;38.93;19.08;100001.00;5090565;28;19920;-39
2021/05/24 10:45:18;;;;;;;;;;;;;;;39.42;17.74;100010.75;5090961;28;19947;-39
2021/05/24 10:47:52;;;;;;;;;;;;;;;40.13;17.56;100008.50;5089935;28;19985;-38
2021/05/24 10:50:18;;;;;;;;;;;;;;;40.40;17.91;100017.25;5090144;28;19919;-38
2021/05/24 10:52:48;;;;;;;;;;;;;;;40.32;17.37;100005.28;5104029;28;19912;-39
2021/05/24 10:55:26;;;;;;;;;;;;;;;39.82;18.43;100002.50;5096394;28;20399;-38
2021/05/24 10:58:02;;;;;;;;;;;;;;;40.14;17.44;100001.75;5108904;28;20376;-39
2021/05/24 11:00:28;;;;;;;;;;;;;;;39.87;17.95;100011.25;5105586;28;19982;-38
2021/05/24 11:02:53;;;;;;;;;;;;;;;40.36;17.51;100002.53;5099890;28;20312;-40
2021/05/24 11:05:25;;;;;;;;;;;;;;;39.86;17.57;99997.72;5111263;28;20311;-45
2021/05/24 11:07:51;;;;;;;;;;;;;;;39.58;18.04;99996.47;5099994;28;20391;-40
2021/05/24 11:10:17;;;;;;;;;;;;;;;39.42;18.14;99998.81;5114819;28;19934;-39
2021/05/24 11:12:45;;;;;;;;;;;;;;;39.80;16.78;99994.53;5114881;28;19922;-39
2021/05/24 11:15:11;;;;;;;;;;;;;;;40.51;16.47;99998.53;5097661;28;20004;-39
2021/05/24 11:17:55;;;;;;;;;;;;;;;39.04;17.35;99992.75;5110359;28;19924;-39
2021/05/24 11:20:49;;;;;;;;;;;;;;;39.84;17.28;99992.53;5094291;28;19967;-44
2021/05/24 11:28:35;;;;;;;;;;;;;;;39.59;18.06;99998.09;5094569;28;20309;-40
2021/05/24 11:31:11;;;;;;;;;;;;;;;40.26;17.77;99995.75;5094639;28;19951;-40
2021/05/24 11:33:49;;;;;;;;;;;;;;;40.03;16.97;99983.03;5094770;28;19955;-40
2021/05/24 11:36:15;;;;;;;;;;;;;;;39.79;17.53;99986.56;5094915;28;19912;-40
2021/05/24 11:38:57;;;;;;;;;;;;;;;39.92;17.25;99985.03;5094702;28;19999;-40
2021/05/24 11:41:27;;;;;;;;;;;;;;;40.51;17.25;99979.00;5093474;28;19918;-39
2021/05/24 11:43:53;;;;;;;;;;;;;;;41.20;16.89;99985.16;5094467;28;19938;-40
2021/05/24 11:46:18;;;;;;;;;;;;;;;39.93;17.79;99991.38;5094304;28;20413;-41
2021/05/24 11:48:44;;;;;;;;;;;;;;;40.88;16.92;99982.50;5093832;28;19920;-40
2021/05/24 11:51:09;;;;;;;;;;;;;;;41.38;16.40;99982.28;5093555;28;19961;-40
2021/05/24 11:53:35;;;;;;;;;;;;;;;41.48;15.96;99977.84;5093676;28;20376;-40
2021/05/24 11:56:07;;;;;;;;;;;;;;;41.61;16.40;99978.94;5094140;28;19912;-40
2021/05/24 11:58:32;;;;;;;;;;;;;;;40.78;16.65;99984.13;5093762;28;19919;-39
2021/05/24 12:01:03;;;;;;;;;;;;;;;40.06;17.30;99981.44;5093878;28;19916;-40
2021/05/24 12:03:29;;;;;;;;;;;;;;;40.16;17.40;99980.63;5094156;28;19912;-40
2021/05/24 12:05:57;;;;;;;;;;;;;;;40.66;17.08;99946.31;5093291;28;19970;-40
2021/05/24 12:08:23;;;;;;;;;;;;;;;41.34;15.92;99973.94;5094451;28;19912;-42
2021/05/24 12:10:57;;;;;;;;;;;;;;;40.78;16.15;99973.75;5083435;28;19917;-39
2021/05/24 12:13:22;;;;;;;;;;;;;;;40.19;17.47;99970.69;5073396;28;19928;-41
2021/05/24 12:15:48;;;;;;;;;;;;;;;40.37;17.31;99968.69;5073701;28;19916;-40
2021/05/24 12:18:13;;;;;;;;;;;;;;;40.55;17.17;99973.41;5092381;28;19923;-40
2021/05/24 12:20:39;;;;;;;;;;;;;;;39.29;17.40;99968.56;5092260;28;19920;-40
2021/05/24 12:23:04;;;;;;;;;;;;;;;39.34;17.40;99967.41;5093970;28;19923;-40
2021/05/24 12:25:29;;;;;;;;;;;;;;;39.76;17.13;99963.09;5092733;28;19912;-39
2021/05/24 12:27:55;;;;;;;;;;;;;;;39.49;16.87;99971.03;5093345;28;20259;-40
2021/05/24 12:30:20;;;;;;;;;;;;;;;39.19;17.40;99961.00;5093145;28;19923;-39
2021/05/24 12:32:50;;;;;;;;;;;;;;;38.98;18.24;99958.13;5092547;28;20260;-41
2021/05/24 12:35:19;;;;;;;;;;;;;;;38.82;18.04;99956.47;5093097;28;19916;-40
2021/05/24 12:37:51;;;;;;;;;;;;;;;39.18;17.44;99962.16;5091364;28;19912;-40
2021/05/24 12:40:16;;;;;;;;;;;;;;;39.62;17.87;99954.72;5095915;28;19915;-39
2021/05/24 12:42:41;;;;;;;;;;;;;;;39.20;18.77;99957.00;5104069;28;19960;-39